createdAt,value
2017-11-21T00:01:31.215Z,9.20
2017-11-21T00:03:58.795Z,9.30
2017-11-21T00:06:26.312Z,9.30
2017-11-21T00:08:54.629Z,9.30
2017-11-21T00:11:22.185Z,9.30
2017-11-21T00:13:49.758Z,9.30
2017-11-21T00:16:17.302Z,9.30
2017-11-21T00:18:44.828Z,9.30
2017-11-21T00:21:12.391Z,9.30
2017-11-21T00:23:39.939Z,9.30
2017-11-21T00:26:08.275Z,9.20
2017-11-21T00:28:35.802Z,9.10
2017-11-21T00:31:03.328Z,9.10
2017-11-21T00:33:31.655Z,9.10
2017-11-21T00:35:59.216Z,9.00
2017-11-21T00:38:26.786Z,9.10
2017-11-21T00:40:54.345Z,9.10
2017-11-21T00:43:21.890Z,9.10
2017-11-21T00:45:49.439Z,9.10
2017-11-21T00:48:16.983Z,9.10
2017-11-21T00:50:44.569Z,9.20
2017-11-21T00:53:12.118Z,9.20
2017-11-21T00:55:39.683Z,9.30
2017-11-21T00:58:07.263Z,9.30
2017-11-21T01:00:34.807Z,9.30
2017-11-21T01:03:02.376Z,9.40
2017-11-21T01:05:29.927Z,9.40
2017-11-21T01:07:57.473Z,9.40
2017-11-21T01:10:25.057Z,9.50
2017-11-21T01:12:52.594Z,9.50
2017-11-21T01:15:20.155Z,9.50
2017-11-21T01:17:47.702Z,9.50
2017-11-21T01:20:15.252Z,9.50
2017-11-21T01:22:42.795Z,9.50
2017-11-21T01:25:11.153Z,9.50
2017-11-21T01:27:38.685Z,9.50
2017-11-21T01:30:06.229Z,9.50
2017-11-21T01:32:33.888Z,9.50
2017-11-21T01:35:01.458Z,9.50
2017-11-21T01:37:29.023Z,9.50
2017-11-21T01:39:56.567Z,9.50
2017-11-21T01:42:24.140Z,9.40
2017-11-21T01:44:51.669Z,9.40
2017-11-21T01:47:19.227Z,9.40
2017-11-21T01:49:46.777Z,9.40
2017-11-21T01:52:14.322Z,9.40
2017-11-21T01:54:42.674Z,9.40
2017-11-21T01:57:10.227Z,9.40
2017-11-21T01:59:37.771Z,9.40
2017-11-21T02:02:05.414Z,9.40
2017-11-21T02:04:32.955Z,9.40
2017-11-21T02:07:00.519Z,9.40
2017-11-21T02:09:28.075Z,9.40
2017-11-21T02:11:55.628Z,9.40
2017-11-21T02:14:23.176Z,9.40
2017-11-21T02:16:51.520Z,9.40
2017-11-21T02:19:19.062Z,9.40
2017-11-21T02:21:46.628Z,9.40
2017-11-21T02:24:14.194Z,9.40
2017-11-21T02:26:41.758Z,9.40
2017-11-21T02:29:09.366Z,9.40
2017-11-21T02:31:36.923Z,9.40
2017-11-21T02:34:04.510Z,9.40
2017-11-21T02:36:32.055Z,9.50
2017-11-21T02:38:59.614Z,9.50
2017-11-21T02:41:27.179Z,9.50
2017-11-21T02:43:54.743Z,9.50
2017-11-21T02:46:22.277Z,9.50
2017-11-21T02:48:49.852Z,9.60
2017-11-21T02:51:17.404Z,9.60
2017-11-21T02:53:44.988Z,9.60
2017-11-21T02:56:12.535Z,9.60
2017-11-21T02:58:40.083Z,9.60
2017-11-21T03:01:07.651Z,9.60
2017-11-21T03:03:35.198Z,9.60
2017-11-21T03:06:02.773Z,9.60
2017-11-21T03:08:30.314Z,9.60
2017-11-21T03:10:57.878Z,9.60
2017-11-21T03:13:25.427Z,9.60
2017-11-21T03:15:52.985Z,9.60
2017-11-21T03:18:20.543Z,9.50
2017-11-21T03:21:00.009Z,9.50
2017-11-21T03:23:39.508Z,9.50
2017-11-21T03:26:17.764Z,9.50
2017-11-21T03:28:45.321Z,9.50
2017-11-21T03:31:12.882Z,9.60
2017-11-21T03:33:40.442Z,9.60
2017-11-21T03:36:07.998Z,9.60
2017-11-21T03:38:35.545Z,9.60
2017-11-21T03:41:03.095Z,9.60
2017-11-21T03:43:30.643Z,9.60
2017-11-21T03:45:58.183Z,9.60
2017-11-21T03:48:26.533Z,9.70
2017-11-21T03:50:55.582Z,9.60
2017-11-21T03:53:23.150Z,9.70
2017-11-21T03:55:50.680Z,9.70
2017-11-21T03:58:19.005Z,9.70
2017-11-21T04:01:01.440Z,9.70
2017-11-21T04:03:29.779Z,9.70
2017-11-21T04:05:57.326Z,9.70
2017-11-21T04:08:24.875Z,9.70
2017-11-21T04:10:52.437Z,9.80
2017-11-21T04:13:20.003Z,9.80
2017-11-21T04:15:47.557Z,9.80
2017-11-21T04:18:15.137Z,9.80
2017-11-21T04:20:42.686Z,9.80
2017-11-21T04:23:10.249Z,9.80
2017-11-21T04:25:37.807Z,9.90
2017-11-21T04:28:05.385Z,9.80
2017-11-21T04:30:32.925Z,9.90
2017-11-21T04:33:00.488Z,9.90
2017-11-21T04:35:28.030Z,9.90
2017-11-21T04:37:55.598Z,9.90
2017-11-21T04:40:23.132Z,9.90
2017-11-21T04:42:51.442Z,9.90
2017-11-21T04:45:18.988Z,9.90
2017-11-21T04:47:46.545Z,10.00
2017-11-21T04:50:14.093Z,9.90
2017-11-21T04:52:41.654Z,9.90
2017-11-21T04:55:09.188Z,10.00
2017-11-21T04:57:37.521Z,10.00
2017-11-21T05:00:05.060Z,10.00
2017-11-21T05:02:32.627Z,10.00
2017-11-21T05:05:00.178Z,10.00
2017-11-21T05:07:27.749Z,10.00
2017-11-21T05:09:55.299Z,10.00
2017-11-21T05:12:22.972Z,10.00
2017-11-21T05:14:50.533Z,10.00
2017-11-21T05:17:18.119Z,10.00
2017-11-21T05:19:45.671Z,10.00
2017-11-21T05:22:13.236Z,10.00
2017-11-21T05:24:40.764Z,10.10
2017-11-21T05:27:08.323Z,10.10
2017-11-21T05:29:35.905Z,10.00
2017-11-21T05:32:03.459Z,10.00
2017-11-21T05:34:31.050Z,10.00
2017-11-21T05:36:58.606Z,10.00
2017-11-21T05:39:26.166Z,9.90
2017-11-21T05:41:53.711Z,9.90
2017-11-21T05:44:27.293Z,9.90
2017-11-21T05:46:54.850Z,9.90
2017-11-21T05:49:22.410Z,9.90
2017-11-21T05:51:49.969Z,9.90
2017-11-21T05:54:17.528Z,9.90
2017-11-21T05:56:45.113Z,10.00
2017-11-21T05:59:12.671Z,10.00
2017-11-21T06:01:40.224Z,10.00
2017-11-21T06:04:07.778Z,10.00
2017-11-21T06:06:35.375Z,10.00
2017-11-21T06:09:03.710Z,10.00
2017-11-21T06:11:31.309Z,10.00
2017-11-21T06:13:59.658Z,10.10
2017-11-21T06:16:27.224Z,10.00
2017-11-21T06:18:54.781Z,10.00
2017-11-21T06:21:22.324Z,10.00
2017-11-21T06:23:49.908Z,10.00
2017-11-21T06:26:17.467Z,10.00
2017-11-21T06:28:45.089Z,10.10
2017-11-21T06:31:12.628Z,10.10
2017-11-21T06:33:40.193Z,10.10
2017-11-21T06:36:07.748Z,10.10
2017-11-21T06:38:35.299Z,10.10
2017-11-21T06:41:02.852Z,10.10
2017-11-21T06:43:30.415Z,10.10
2017-11-21T06:45:57.975Z,10.10
2017-11-21T06:48:25.522Z,10.10
2017-11-21T06:50:53.838Z,10.10
2017-11-21T06:53:21.393Z,10.10
2017-11-21T06:55:48.952Z,10.10
2017-11-21T06:58:16.543Z,10.10
2017-11-21T07:00:44.111Z,10.10
2017-11-21T07:03:11.713Z,10.10
2017-11-21T07:05:39.253Z,10.10
2017-11-21T07:08:07.552Z,10.10
2017-11-21T07:10:35.099Z,10.10
2017-11-21T07:13:03.415Z,10.10
2017-11-21T07:15:30.998Z,10.10
2017-11-21T07:17:58.564Z,10.10
2017-11-21T07:20:26.143Z,10.10
2017-11-21T07:22:54.456Z,10.10
2017-11-21T07:25:22.018Z,10.10
2017-11-21T07:27:49.597Z,10.10
2017-11-21T07:30:17.146Z,10.10
2017-11-21T07:32:44.766Z,10.10
2017-11-21T07:35:13.073Z,10.10
2017-11-21T07:37:40.660Z,10.10
2017-11-21T07:40:08.291Z,10.10
2017-11-21T07:42:35.829Z,10.10
2017-11-21T07:45:04.162Z,10.10
2017-11-21T07:47:31.716Z,10.00
2017-11-21T07:49:59.287Z,10.00
2017-11-21T07:52:26.843Z,10.10
2017-11-21T07:54:54.438Z,10.00
2017-11-21T07:57:22.751Z,10.00
2017-11-21T07:59:50.292Z,10.00
2017-11-21T08:02:17.858Z,10.00
2017-11-21T08:04:45.411Z,10.10
2017-11-21T08:07:13.002Z,10.10
2017-11-21T08:09:40.555Z,10.10
2017-11-21T08:12:08.131Z,10.10
2017-11-21T08:14:35.672Z,10.10
2017-11-21T08:17:03.234Z,10.10
2017-11-21T08:19:30.820Z,10.10
2017-11-21T08:21:59.758Z,10.10
2017-11-21T08:24:27.350Z,10.10
2017-11-21T08:26:54.918Z,10.10
2017-11-21T08:29:22.514Z,10.10
2017-11-21T08:31:50.853Z,10.20
2017-11-21T08:34:18.411Z,10.20
2017-11-21T08:36:45.998Z,10.20
2017-11-21T08:39:13.546Z,10.20
2017-11-21T08:41:41.135Z,10.20
2017-11-21T08:44:09.468Z,10.20
2017-11-21T08:46:37.069Z,10.20
2017-11-21T08:49:05.387Z,10.20
2017-11-21T08:51:32.943Z,10.20
2017-11-21T08:54:00.540Z,10.30
2017-11-21T08:56:28.072Z,10.30
2017-11-21T08:58:55.644Z,10.30
2017-11-21T09:01:23.184Z,10.30
2017-11-21T09:03:50.753Z,10.40
2017-11-21T09:06:18.302Z,10.40
2017-11-21T09:08:45.857Z,10.40
2017-11-21T09:11:13.457Z,10.40
2017-11-21T09:13:40.994Z,10.40
2017-11-21T09:16:08.567Z,10.40
2017-11-21T09:18:36.139Z,10.40
2017-11-21T09:21:03.696Z,10.40
2017-11-21T09:23:32.012Z,10.40
2017-11-21T09:25:59.559Z,10.40
2017-11-21T09:28:27.148Z,10.40
2017-11-21T09:30:54.695Z,10.40
2017-11-21T09:33:22.264Z,10.40
2017-11-21T09:35:49.832Z,10.50
2017-11-21T09:38:17.419Z,10.50
2017-11-21T09:40:44.973Z,10.50
2017-11-21T09:43:12.541Z,10.50
2017-11-21T09:45:40.151Z,10.50
2017-11-21T09:48:07.688Z,10.60
2017-11-21T09:50:36.027Z,10.60
2017-11-21T09:53:03.561Z,10.60
2017-11-21T09:55:31.127Z,10.60
2017-11-21T09:57:58.694Z,10.60
2017-11-21T10:00:26.252Z,10.60
2017-11-21T10:02:53.822Z,10.70
2017-11-21T10:05:21.386Z,10.70
2017-11-21T10:07:48.970Z,10.80
2017-11-21T10:10:17.297Z,10.90
2017-11-21T10:12:44.854Z,10.90
2017-11-21T10:15:12.405Z,10.90
2017-11-21T10:17:39.953Z,10.90
2017-11-21T10:20:07.524Z,11.00
2017-11-21T10:22:35.071Z,11.00
2017-11-21T10:25:02.647Z,11.00
2017-11-21T10:27:30.215Z,11.00
2017-11-21T10:29:57.766Z,11.00
2017-11-21T10:32:25.334Z,11.10
2017-11-21T10:34:52.988Z,11.10
2017-11-21T10:37:20.550Z,11.10
2017-11-21T10:39:49.502Z,11.10
2017-11-21T10:42:17.166Z,11.00
2017-11-21T10:44:45.509Z,10.90
2017-11-21T10:47:13.036Z,10.90
2017-11-21T10:49:40.568Z,10.90
2017-11-21T10:52:08.150Z,10.90
2017-11-21T10:54:35.713Z,10.90
2017-11-21T10:57:03.266Z,10.90
2017-11-21T10:59:30.823Z,11.00
2017-11-21T11:01:58.483Z,11.00
2017-11-21T11:04:26.043Z,11.10
2017-11-21T11:06:53.604Z,11.10
2017-11-21T11:09:21.180Z,11.00
2017-11-21T11:11:48.731Z,11.00
2017-11-21T11:14:16.271Z,11.00
2017-11-21T11:16:43.844Z,10.90
2017-11-21T11:19:11.390Z,10.90
2017-11-21T11:21:38.957Z,10.90
2017-11-21T11:24:06.503Z,10.80
2017-11-21T11:26:34.043Z,10.80
2017-11-21T11:29:02.356Z,10.90
2017-11-21T11:31:29.912Z,10.90
2017-11-21T11:33:57.497Z,10.90
2017-11-21T11:36:25.069Z,10.90
2017-11-21T11:38:52.630Z,10.90
2017-11-21T11:41:20.207Z,10.90
2017-11-21T11:43:47.762Z,10.90
2017-11-21T11:46:15.307Z,10.90
2017-11-21T11:48:42.881Z,10.80
2017-11-21T11:51:11.209Z,11.00
2017-11-21T11:53:38.778Z,11.00
2017-11-21T11:56:06.308Z,11.00
2017-11-21T11:58:33.844Z,11.00
2017-11-21T12:01:02.176Z,11.00
2017-11-21T12:03:29.723Z,11.00
2017-11-21T12:05:57.299Z,11.00
2017-11-21T12:08:24.861Z,10.90
2017-11-21T12:10:52.396Z,10.90
2017-11-21T12:13:19.945Z,10.90
2017-11-21T12:15:47.486Z,10.90
2017-11-21T12:18:15.823Z,10.90
2017-11-21T12:20:43.358Z,10.90
2017-11-21T12:23:10.907Z,10.90
2017-11-21T12:25:38.468Z,10.90
2017-11-21T12:28:06.024Z,10.90
2017-11-21T12:30:33.573Z,10.90
2017-11-21T12:33:01.120Z,10.90
2017-11-21T12:35:29.475Z,11.00
2017-11-21T12:37:57.027Z,11.00
2017-11-21T12:40:25.321Z,11.10
2017-11-21T12:42:53.649Z,11.10
2017-11-21T12:45:21.229Z,11.10
2017-11-21T12:47:48.818Z,11.00
2017-11-21T12:50:17.116Z,11.10
2017-11-21T12:52:44.668Z,11.00
2017-11-21T12:55:12.258Z,11.10
2017-11-21T12:57:39.804Z,11.10
2017-11-21T13:00:07.386Z,11.10
2017-11-21T13:02:34.931Z,11.10
2017-11-21T13:05:02.536Z,11.10
2017-11-21T13:07:30.073Z,11.10
2017-11-21T13:09:57.639Z,11.10
2017-11-21T13:12:25.173Z,11.10
2017-11-21T13:14:52.727Z,11.10
2017-11-21T13:17:20.290Z,11.20
2017-11-21T13:19:47.821Z,11.20
2017-11-21T13:22:15.372Z,11.20
2017-11-21T13:24:43.697Z,11.20
2017-11-21T13:27:11.287Z,11.10
2017-11-21T13:29:38.835Z,11.10
2017-11-21T13:32:06.365Z,11.10
2017-11-21T13:34:33.935Z,11.10
2017-11-21T13:37:01.475Z,11.10
2017-11-21T13:39:29.062Z,11.10
2017-11-21T13:41:56.625Z,11.10
2017-11-21T13:44:24.200Z,11.10
2017-11-21T13:46:52.515Z,11.20
2017-11-21T13:49:20.063Z,11.10
2017-11-21T13:51:48.401Z,11.10
2017-11-21T13:54:15.970Z,11.10
2017-11-21T13:56:43.517Z,11.10
2017-11-21T13:59:11.089Z,11.10
2017-11-21T14:01:38.655Z,11.10
2017-11-21T14:04:06.987Z,11.10
2017-11-21T14:06:34.541Z,11.10
2017-11-21T14:09:02.069Z,11.20
2017-11-21T14:11:30.407Z,11.20
2017-11-21T14:13:57.977Z,11.20
2017-11-21T14:16:25.547Z,11.10
2017-11-21T14:18:53.129Z,11.10
2017-11-21T14:21:20.730Z,11.20
2017-11-21T14:23:48.277Z,11.10
2017-11-21T14:26:15.822Z,11.10
2017-11-21T14:28:43.417Z,11.20
2017-11-21T14:31:10.945Z,11.10
2017-11-21T14:33:38.506Z,11.10
2017-11-21T14:36:06.086Z,11.10
2017-11-21T14:38:33.630Z,11.10
2017-11-21T14:41:01.205Z,11.10
2017-11-21T14:43:28.746Z,11.00
2017-11-21T14:45:56.332Z,11.00
2017-11-21T14:48:23.889Z,11.00
2017-11-21T14:50:51.437Z,11.00
2017-11-21T14:53:19.094Z,11.00
2017-11-21T14:55:46.658Z,11.00
2017-11-21T14:58:14.241Z,11.00
2017-11-21T15:00:41.806Z,10.90
2017-11-21T15:03:10.176Z,10.90
2017-11-21T15:05:37.723Z,10.90
2017-11-21T15:08:05.269Z,10.90
2017-11-21T15:10:32.847Z,10.80
2017-11-21T15:13:00.385Z,10.80
2017-11-21T15:15:27.947Z,10.80
2017-11-21T15:17:55.493Z,10.80
2017-11-21T15:20:23.067Z,10.80
2017-11-21T15:22:50.618Z,10.80
2017-11-21T15:25:18.169Z,10.80
2017-11-21T15:27:45.731Z,10.70
2017-11-21T15:30:13.281Z,10.70
2017-11-21T15:32:40.861Z,10.70
2017-11-21T15:35:08.417Z,10.70
2017-11-21T15:37:35.991Z,10.60
2017-11-21T15:40:03.541Z,10.60
2017-11-21T15:42:31.087Z,10.60
2017-11-21T15:44:58.659Z,10.60
2017-11-21T15:47:26.254Z,10.60
2017-11-21T15:49:53.849Z,10.60
2017-11-21T15:52:21.384Z,10.60
2017-11-21T15:54:49.715Z,10.60
2017-11-21T15:57:17.255Z,10.60
2017-11-21T15:59:44.833Z,10.60
2017-11-21T16:02:12.413Z,10.60
2017-11-21T16:04:39.985Z,10.60
2017-11-21T16:07:07.541Z,10.60
2017-11-21T16:09:35.100Z,10.60
2017-11-21T16:12:02.675Z,10.50
2017-11-21T16:14:30.981Z,10.50
2017-11-21T16:16:58.527Z,10.50
2017-11-21T16:19:26.099Z,10.50
2017-11-21T16:21:53.647Z,10.50
2017-11-21T16:24:21.979Z,10.50
2017-11-21T16:26:49.516Z,10.50
2017-11-21T16:29:17.082Z,10.50
2017-11-21T16:31:44.640Z,10.50
2017-11-21T16:34:12.207Z,10.50
2017-11-21T16:36:39.773Z,10.40
2017-11-21T16:39:07.342Z,10.40
2017-11-21T16:41:34.881Z,10.40
2017-11-21T16:44:02.447Z,10.40
2017-11-21T16:46:29.981Z,10.30
2017-11-21T16:48:57.605Z,10.30
2017-11-21T16:51:25.919Z,10.30
2017-11-21T16:53:53.509Z,10.30
2017-11-21T16:56:21.086Z,10.30
2017-11-21T16:58:48.674Z,10.30
2017-11-21T17:01:16.256Z,10.20
2017-11-21T17:03:43.825Z,10.20
2017-11-21T17:06:11.432Z,10.30
2017-11-21T17:08:39.792Z,10.30
2017-11-21T17:11:07.390Z,10.30
2017-11-21T17:13:34.960Z,10.30
2017-11-21T17:16:02.532Z,10.30
2017-11-21T17:18:30.100Z,10.30
2017-11-21T17:20:57.636Z,10.20
2017-11-21T17:23:25.225Z,10.20
2017-11-21T17:25:52.765Z,10.20
2017-11-21T17:28:20.312Z,10.20
2017-11-21T17:30:47.864Z,10.20
2017-11-21T17:33:15.441Z,10.20
2017-11-21T17:35:43.013Z,10.20
2017-11-21T17:38:10.571Z,10.10
2017-11-21T17:40:38.126Z,10.10
2017-11-21T17:43:05.695Z,10.10
2017-11-21T17:45:33.279Z,10.10
2017-11-21T17:48:00.830Z,10.10
2017-11-21T17:50:28.409Z,10.10
2017-11-21T17:52:56.743Z,10.10
2017-11-21T17:55:24.349Z,10.10
2017-11-21T17:57:52.670Z,10.10
2017-11-21T18:00:20.223Z,10.10
2017-11-21T18:02:47.801Z,10.10
2017-11-21T18:05:15.365Z,10.10
2017-11-21T18:07:42.955Z,10.10
2017-11-21T18:10:10.510Z,10.10
2017-11-21T18:12:38.105Z,10.10
2017-11-21T18:15:06.418Z,10.10
2017-11-21T18:17:33.978Z,10.10
2017-11-21T18:20:02.363Z,10.00
2017-11-21T18:22:29.917Z,10.10
2017-11-21T18:24:57.487Z,10.00
2017-11-21T18:27:25.031Z,10.10
2017-11-21T18:29:52.815Z,10.10
2017-11-21T18:32:20.383Z,10.10
2017-11-21T18:34:47.959Z,10.10
2017-11-21T18:37:15.537Z,10.00
2017-11-21T18:39:43.844Z,10.00
2017-11-21T18:42:11.412Z,9.90
2017-11-21T18:44:38.964Z,9.90
2017-11-21T18:47:06.529Z,9.90
2017-11-21T18:49:34.195Z,9.80
2017-11-21T18:52:01.763Z,9.80
2017-11-21T18:54:29.412Z,9.70
2017-11-21T18:56:56.975Z,9.70
2017-11-21T18:59:24.547Z,9.80
2017-11-21T19:01:52.144Z,9.80
2017-11-21T19:04:20.458Z,9.80
2017-11-21T19:06:48.041Z,9.80
2017-11-21T19:09:15.595Z,9.80
2017-11-21T19:11:44.170Z,9.90
2017-11-21T19:14:11.737Z,9.90
2017-11-21T19:16:39.400Z,9.90
2017-11-21T19:19:06.975Z,9.90
2017-11-21T19:21:34.505Z,9.90
2017-11-21T19:24:02.085Z,10.00
2017-11-21T19:26:29.658Z,10.00
2017-11-21T19:28:57.292Z,10.00
2017-11-21T19:31:24.862Z,9.90
2017-11-21T19:33:52.479Z,9.90
2017-11-21T19:36:20.179Z,9.90
2017-11-21T19:38:47.730Z,10.00
2017-11-21T19:41:15.304Z,10.00
2017-11-21T19:43:42.915Z,9.90
2017-11-21T19:46:10.708Z,10.00
2017-11-21T19:48:38.790Z,9.90
2017-11-21T19:51:06.652Z,9.90
2017-11-21T19:53:34.625Z,9.90
2017-11-21T19:56:02.386Z,9.90
2017-11-21T19:58:30.252Z,9.80
2017-11-21T20:00:58.042Z,9.80
2017-11-21T20:03:25.781Z,9.80
2017-11-21T20:05:53.554Z,9.70
2017-11-21T20:08:21.187Z,9.70
2017-11-21T20:10:48.780Z,9.70
2017-11-21T20:13:16.735Z,9.60
2017-11-21T20:15:44.361Z,9.60
2017-11-21T20:18:12.692Z,9.60
2017-11-21T20:20:40.377Z,9.60
2017-11-21T20:23:08.722Z,9.60
2017-11-21T20:25:36.373Z,9.60
2017-11-21T20:28:03.985Z,9.60
2017-11-21T20:30:32.338Z,9.50
2017-11-21T20:32:59.929Z,9.50
2017-11-21T20:35:28.280Z,9.50
2017-11-21T20:37:55.855Z,9.50
2017-11-21T20:40:24.200Z,9.40
2017-11-21T20:42:51.766Z,9.40
2017-11-21T20:45:19.509Z,9.40
2017-11-21T20:47:47.117Z,9.40
2017-11-21T20:50:15.449Z,9.40
2017-11-21T20:52:43.004Z,9.40
2017-11-21T20:55:10.615Z,9.40
2017-11-21T20:57:39.051Z,9.40
2017-11-21T21:00:06.809Z,9.40
2017-11-21T21:02:34.409Z,9.40
2017-11-21T21:05:01.982Z,9.40
2017-11-21T21:07:30.407Z,9.40
2017-11-21T21:09:58.069Z,9.40
2017-11-21T21:12:25.671Z,9.40
2017-11-21T21:14:53.502Z,9.40
2017-11-21T21:17:21.146Z,9.40
2017-11-21T21:19:48.742Z,9.40
2017-11-21T21:22:16.485Z,9.40
2017-11-21T21:24:45.025Z,9.40
2017-11-21T21:27:25.474Z,9.50
2017-11-21T21:29:53.801Z,9.40
2017-11-21T21:32:21.365Z,9.40
2017-11-21T21:34:48.914Z,9.50
2017-11-21T21:37:16.481Z,9.40
2017-11-21T21:39:44.031Z,9.40
2017-11-21T21:42:11.595Z,9.40
2017-11-21T21:44:39.227Z,9.50
2017-11-21T21:47:07.548Z,9.50
2017-11-21T21:49:35.107Z,9.40
2017-11-21T21:52:02.643Z,9.50
2017-11-21T21:54:30.192Z,9.50
2017-11-21T21:56:57.756Z,9.50
2017-11-21T21:59:25.344Z,9.50
2017-11-21T22:01:52.927Z,9.50
2017-11-21T22:04:20.528Z,9.50
2017-11-21T22:06:48.080Z,9.50
2017-11-21T22:09:15.643Z,9.50
2017-11-21T22:11:43.184Z,9.50
2017-11-21T22:14:11.524Z,9.50
2017-11-21T22:16:39.122Z,9.50
2017-11-21T22:19:07.460Z,9.50
2017-11-21T22:21:35.021Z,9.50
2017-11-21T22:24:02.572Z,9.50
2017-11-21T22:26:30.150Z,9.50
2017-11-21T22:28:57.719Z,9.50
2017-11-21T22:31:25.281Z,9.50
2017-11-21T22:33:52.833Z,9.50
2017-11-21T22:36:20.379Z,9.50
2017-11-21T22:38:47.961Z,9.50
2017-11-21T22:41:15.528Z,9.50
2017-11-21T22:43:43.852Z,9.50
2017-11-21T22:46:11.402Z,9.50
2017-11-21T22:48:38.933Z,9.50
2017-11-21T22:51:07.263Z,9.50
2017-11-21T22:53:34.808Z,9.40
2017-11-21T22:56:02.371Z,9.50
2017-11-21T22:58:29.925Z,9.50
2017-11-21T23:00:57.508Z,9.40
2017-11-21T23:03:25.091Z,9.40
2017-11-21T23:05:52.630Z,9.40
2017-11-21T23:08:20.195Z,9.40
2017-11-21T23:10:48.504Z,9.40
2017-11-21T23:13:16.844Z,9.40
2017-11-21T23:15:44.403Z,9.40
2017-11-21T23:18:11.970Z,9.50
2017-11-21T23:20:39.534Z,9.50
2017-11-21T23:23:07.079Z,9.40
2017-11-21T23:25:34.640Z,9.40
2017-11-21T23:28:02.186Z,9.40
2017-11-21T23:30:29.747Z,9.40
2017-11-21T23:32:57.289Z,9.40
2017-11-21T23:35:24.875Z,9.40
2017-11-21T23:37:52.509Z,9.40
2017-11-21T23:40:20.069Z,9.30
2017-11-21T23:42:47.621Z,9.30
2017-11-21T23:45:15.187Z,9.30
2017-11-21T23:47:42.749Z,9.30
2017-11-21T23:50:10.295Z,9.30
2017-11-21T23:52:37.844Z,9.30
2017-11-21T23:55:05.386Z,9.30
2017-11-21T23:57:33.722Z,9.30
